Time;durP1;ratioP1;P1;durP2;ratioP2;P2;SDS_P1;SDS_P2;PMS_P1;PMS_P2;Temp;Humidity;BMP_temperature;BMP_pressure;BME280_temperature;BME280_humidity;BME280_pressure;Samples;Min_cycle;Max_cycle;Signal;HPM_P1;HPM_P2
2021/05/20 00:00:26;;;;;;;0.43;0.43;;;22.50;46.90;;;;;;5046267;28;20053;-66
2021/05/20 00:03:33;;;;;;;0.47;0.47;;;22.50;46.90;;;;;;5046333;28;20098;-66
2021/05/20 00:06:20;;;;;;;0.52;0.43;;;22.50;46.90;;;;;;5046751;28;20114;-67
2021/05/20 00:09:27;;;;;;;0.47;0.40;;;22.50;46.90;;;;;;5045641;28;20053;-66
2021/05/20 00:12:14;;;;;;;2.30;0.47;;;22.50;46.90;;;;;;5040101;28;20049;-67
2021/05/20 00:14:41;;;;;;;1.38;0.40;;;22.50;46.90;;;;;;5039193;28;20334;-67
2021/05/20 00:17:28;;;;;;;0.30;0.30;;;22.50;46.90;;;;;;5042056;28;20049;-66
2021/05/20 00:20:15;;;;;;;0.57;0.40;;;22.50;46.90;;;;;;5041825;28;20094;-66
2021/05/20 00:23:22;;;;;;;0.50;0.40;;;22.50;46.80;;;;;;5041627;28;20072;-66
2021/05/20 00:26:30;;;;;;;0.65;0.40;;;22.50;46.80;;;;;;5046231;28;20106;-66
2021/05/20 00:28:57;;;;;;;1.27;0.25;;;22.50;46.90;;;;;;5045853;28;20049;-66
2021/05/20 00:31:24;;;;;;;0.68;0.43;;;22.50;46.90;;;;;;5046186;28;20662;-66
2021/05/20 00:33:51;;;;;;;0.35;0.30;;;22.50;46.90;;;;;;5047759;28;20057;-66
2021/05/20 00:36:58;;;;;;;0.25;0.25;;;22.50;46.90;;;;;;5047909;28;20049;-66
2021/05/20 00:39:45;;;;;;;0.20;0.20;;;22.50;46.80;;;;;;5045607;28;20237;-67
2021/05/20 00:42:25;;;;;;;0.38;0.20;;;22.50;46.80;;;;;;5044944;28;20080;-66
2021/05/20 00:45:16;;;;;;;0.47;0.47;;;22.50;46.80;;;;;;5043645;28;20083;-66
2021/05/20 00:47:44;;;;;;;0.20;0.20;;;22.50;46.80;;;;;;5041239;28;20052;-66
2021/05/20 00:50:31;;;;;;;1.77;0.20;;;22.50;46.80;;;;;;5038819;28;20049;-67
2021/05/20 00:53:18;;;;;;;0.30;0.30;;;22.50;46.80;;;;;;5042689;28;20092;-66
2021/05/20 00:56:07;;;;;;;0.30;0.30;;;22.50;46.80;;;;;;5025486;28;20103;-66
2021/05/20 00:58:34;;;;;;;0.30;0.30;;;22.50;46.80;;;;;;5025450;28;20534;-67
2021/05/20 01:01:22;;;;;;;0.82;0.40;;;22.50;46.80;;;;;;5025554;28;20068;-67
2021/05/20 01:04:29;;;;;;;1.13;0.28;;;22.50;46.70;;;;;;5024165;28;20131;-66
2021/05/20 01:07:23;;;;;;;0.40;0.40;;;22.50;46.70;;;;;;5025518;28;20153;-67
2021/05/20 01:09:51;;;;;;;0.22;0.22;;;22.50;46.70;;;;;;5037832;28;20130;-67
2021/05/20 01:12:18;;;;;;;1.65;0.20;;;22.50;46.70;;;;;;5040924;28;20773;-66
2021/05/20 01:15:07;;;;;;;0.28;0.28;;;22.50;46.60;;;;;;5037502;28;20049;-66
2021/05/20 01:17:54;;;;;;;0.40;0.40;;;22.50;46.60;;;;;;5039194;28;20123;-67
2021/05/20 01:20:42;;;;;;;0.30;0.30;;;22.40;46.60;;;;;;5038022;28;20144;-67
2021/05/20 01:23:12;;;;;;;0.20;0.20;;;22.50;46.60;;;;;;5040363;28;20068;-67
2021/05/20 01:26:01;;;;;;;0.47;0.30;;;22.40;46.60;;;;;;5042462;28;20045;-66
2021/05/20 01:28:30;;;;;;;0.40;0.40;;;22.40;46.60;;;;;;5036536;28;20147;-66
2021/05/20 01:31:17;;;;;;;0.22;0.22;;;22.40;46.60;;;;;;5038986;28;20498;-66
2021/05/20 01:34:04;;;;;;;0.20;0.20;;;22.40;46.60;;;;;;5045146;28;20084;-66
2021/05/20 01:36:31;;;;;;;0.85;0.52;;;22.40;46.60;;;;;;5044178;28;20068;-66
2021/05/20 01:39:20;;;;;;;0.22;0.22;;;22.40;46.60;;;;;;5045166;28;20264;-66
2021/05/20 01:42:04;;;;;;;0.38;0.30;;;22.40;46.60;;;;;;5044582;28;20126;-66
2021/05/20 01:44:53;;;;;;;0.63;0.63;;;22.40;46.60;;;;;;5044397;28;20048;-66
2021/05/20 01:47:20;;;;;;;0.25;0.22;;;22.40;46.60;;;;;;5040690;28;20494;-66
2021/05/20 01:49:50;;;;;;;0.30;0.30;;;22.40;46.60;;;;;;5039062;28;20068;-66
2021/05/20 01:52:57;;;;;;;0.45;0.20;;;22.40;46.50;;;;;;5033870;28;20103;-67
2021/05/20 01:55:47;;;;;;;3.05;0.52;;;22.40;46.50;;;;;;5039513;28;20460;-67
2021/05/20 01:58:34;;;;;;;;;;;22.40;46.50;;;;;;5036423;28;20057;-67
2021/05/20 02:01:03;;;;;;;0.30;0.25;;;22.40;46.50;;;;;;5039614;28;19921;-66
2021/05/20 02:03:50;;;;;;;0.30;0.30;;;22.40;46.50;;;;;;5039232;28;20133;-66
2021/05/20 02:06:17;;;;;;;0.60;0.38;;;22.40;46.40;;;;;;5039233;28;20041;-66
2021/05/20 02:08:44;;;;;;;0.60;0.60;;;22.40;46.40;;;;;;5038068;28;20076;-66
2021/05/20 02:11:11;;;;;;;0.73;0.30;;;22.40;46.50;;;;;;5039699;28;20116;-66
2021/05/20 02:13:38;;;;;;;0.93;0.30;;;22.40;46.50;;;;;;5036208;28;20136;-66
2021/05/20 02:16:06;;;;;;;0.40;0.20;;;22.40;46.60;;;;;;5042851;28;20049;-66
2021/05/20 02:18:35;;;;;;;0.28;0.28;;;22.40;46.50;;;;;;5044341;28;20059;-67
2021/05/20 02:21:41;;;;;;;0.10;0.10;;;22.40;46.50;;;;;;5044709;28;20130;-66
2021/05/20 02:24:48;;;;;;;0.10;0.10;;;22.40;46.50;;;;;;5044080;28;20048;-66
2021/05/20 02:27:15;;;;;;;0.38;0.38;;;22.40;46.50;;;;;;5044634;28;20095;-66
2021/05/20 02:29:42;;;;;;;0.30;0.20;;;22.40;46.50;;;;;;5044565;28;20080;-66
2021/05/20 02:32:09;;;;;;;0.32;0.30;;;22.40;46.50;;;;;;5044354;28;20132;-66
2021/05/20 02:34:36;;;;;;;0.22;0.22;;;22.40;46.50;;;;;;5044839;28;20235;-66
2021/05/20 02:37:03;;;;;;;0.30;0.30;;;22.40;46.50;;;;;;5044801;28;20149;-66
2021/05/20 02:39:30;;;;;;;0.90;0.20;;;22.40;46.40;;;;;;5044307;28;20081;-66
2021/05/20 02:41:58;;;;;;;1.25;0.40;;;22.40;46.40;;;;;;5043907;28;20053;-66
2021/05/20 02:45:05;;;;;;;0.47;0.35;;;22.40;46.40;;;;;;5044306;28;20132;-66
2021/05/20 02:47:52;;;;;;;0.30;0.30;;;22.40;46.40;;;;;;5039427;28;20494;-67
2021/05/20 02:50:39;;;;;;;1.05;0.35;;;22.40;46.30;;;;;;5024024;28;20041;-66
2021/05/20 02:53:06;;;;;;;0.30;0.30;;;22.40;46.30;;;;;;5023358;28;20132;-66
2021/05/20 02:56:13;;;;;;;0.40;0.40;;;22.40;46.30;;;;;;5022826;28;20144;-66
2021/05/20 02:59:00;;;;;;;0.43;0.30;;;22.40;46.20;;;;;;5024216;28;20084;-66
2021/05/20 03:02:07;;;;;;;0.30;0.30;;;22.40;46.20;;;;;;5026081;28;20313;-67
2021/05/20 03:04:55;;;;;;;0.40;0.30;;;22.40;46.30;;;;;;5043695;28;20118;-66
2021/05/20 03:07:22;;;;;;;0.47;0.47;;;22.40;46.30;;;;;;5044160;28;20053;-66
2021/05/20 03:10:29;;;;;;;0.40;0.40;;;22.40;46.30;;;;;;5042793;28;20076;-66
2021/05/20 03:13:16;;;;;;;0.22;0.22;;;22.40;46.30;;;;;;5042437;28;20049;-67
2021/05/20 03:15:43;;;;;;;0.30;0.30;;;22.40;46.30;;;;;;5043071;28;20135;-66
2021/05/20 03:18:30;;;;;;;0.43;0.43;;;22.40;46.30;;;;;;5040337;28;20085;-66
2021/05/20 03:20:57;;;;;;;1.00;0.50;;;22.40;46.20;;;;;;5038049;28;20081;-66
2021/05/20 03:24:04;;;;;;;0.40;0.40;;;22.30;46.20;;;;;;5044933;28;20060;-66
2021/05/20 03:27:11;;;;;;;0.95;0.20;;;22.40;46.20;;;;;;5039656;28;20080;-67
2021/05/20 03:30:11;;;;;;;0.60;0.60;;;22.30;46.20;;;;;;5040132;28;20150;-66
2021/05/20 03:33:19;;;;;;;0.40;0.40;;;22.30;46.10;;;;;;5044603;28;20037;-66
2021/05/20 03:35:48;;;;;;;0.40;0.30;;;22.40;46.10;;;;;;5042531;28;20376;-66
2021/05/20 03:38:15;;;;;;;0.20;0.20;;;22.40;46.10;;;;;;5043729;28;20189;-66
2021/05/20 03:41:02;;;;;;;0.50;0.50;;;22.40;46.10;;;;;;5044698;28;20132;-66
2021/05/20 03:44:09;;;;;;;0.43;0.43;;;22.40;46.00;;;;;;5046226;28;20049;-66
2021/05/20 03:46:59;;;;;;;0.22;0.22;;;22.40;46.00;;;;;;5045960;28;20048;-66
2021/05/20 03:49:26;;;;;;;;;;;22.40;46.00;;;;;;5047558;28;20137;-66
2021/05/20 03:52:33;;;;;;;0.22;0.20;;;22.40;45.90;;;;;;5046582;28;20336;-66
2021/05/20 03:55:40;;;;;;;0.20;0.20;;;22.40;45.90;;;;;;5046746;28;20123;-66
2021/05/20 03:58:07;;;;;;;0.30;0.30;;;22.40;45.90;;;;;;5046641;28;20336;-66
2021/05/20 04:00:34;;;;;;;0.20;0.20;;;22.40;46.00;;;;;;5047486;28;20513;-66
2021/05/20 04:03:02;;;;;;;0.52;0.30;;;22.40;46.00;;;;;;5047892;28;20080;-66
2021/05/20 04:05:48;;;;;;;0.30;0.25;;;22.40;46.10;;;;;;5046187;28;20138;-66
2021/05/20 04:08:16;;;;;;;0.30;0.30;;;22.40;46.00;;;;;;5046354;28;20287;-66
2021/05/20 04:10:43;;;;;;;0.40;0.40;;;22.40;46.00;;;;;;5046325;28;20085;-66
2021/05/20 04:13:10;;;;;;;0.30;0.30;;;22.40;45.90;;;;;;5044606;28;20141;-66
2021/05/20 04:15:37;;;;;;;0.30;0.30;;;22.40;45.90;;;;;;5046492;28;20124;-67
2021/05/20 04:18:05;;;;;;;0.57;0.57;;;22.40;45.90;;;;;;5038278;28;20136;-67
2021/05/20 04:20:52;;;;;;;0.30;0.30;;;22.40;45.90;;;;;;5041158;28;20450;-66
2021/05/20 04:23:39;;;;;;;0.30;0.30;;;22.40;45.90;;;;;;5039193;28;20045;-66
2021/05/20 04:26:20;;;;;;;0.30;0.30;;;22.40;45.90;;;;;;5040471;28;20078;-66
2021/05/20 04:29:09;;;;;;;0.35;0.35;;;22.40;45.80;;;;;;5043243;28;20094;-66
2021/05/20 04:31:36;;;;;;;0.38;0.38;;;22.40;45.80;;;;;;5040348;28;20045;-66
2021/05/20 04:34:23;;;;;;;0.28;0.20;;;22.40;45.70;;;;;;5040203;28;20432;-66
2021/05/20 04:37:10;;;;;;;0.65;0.20;;;22.40;45.70;;;;;;5034973;28;20128;-66
2021/05/20 04:39:38;;;;;;;0.13;0.13;;;22.40;45.70;;;;;;5035991;28;20095;-66
2021/05/20 04:42:44;;;;;;;0.65;0.30;;;22.40;45.70;;;;;;5033033;28;20457;-66
2021/05/20 04:45:12;;;;;;;0.30;0.28;;;22.40;45.60;;;;;;5033337;28;20269;-67
2021/05/20 04:47:40;;;;;;;0.30;0.30;;;22.50;45.70;;;;;;5029700;28;20132;-67
2021/05/20 04:50:07;;;;;;;0.10;0.10;;;22.40;45.60;;;;;;5035397;28;20087;-66
2021/05/20 04:52:35;;;;;;;0.28;0.20;;;22.40;45.70;;;;;;5037644;28;20128;-67
2021/05/20 04:55:03;;;;;;;0.30;0.30;;;22.50;45.80;;;;;;5041739;28;20037;-67
2021/05/20 04:57:30;;;;;;;0.25;0.25;;;22.40;45.70;;;;;;5045638;28;20083;-66
2021/05/20 04:59:57;;;;;;;0.30;0.30;;;22.40;45.80;;;;;;5036088;28;20080;-66
2021/05/20 05:02:24;;;;;;;0.20;0.20;;;22.40;45.80;;;;;;5038076;28;20134;-66
2021/05/20 05:04:53;;;;;;;1.10;0.30;;;22.40;45.70;;;;;;5037781;28;20124;-66
2021/05/20 05:07:20;;;;;;;0.45;0.45;;;22.40;45.70;;;;;;5038598;28;20098;-66
2021/05/20 05:09:48;;;;;;;1.60;0.40;;;22.50;45.70;;;;;;5035106;28;20056;-67
2021/05/20 05:12:15;;;;;;;0.30;0.30;;;22.50;45.70;;;;;;5038991;28;20129;-66
2021/05/20 05:14:42;;;;;;;0.40;0.40;;;22.50;45.70;;;;;;5040685;28;20080;-66
2021/05/20 05:17:10;;;;;;;0.30;0.30;;;22.50;45.70;;;;;;5031775;28;20120;-70
2021/05/20 05:19:37;;;;;;;0.30;0.30;;;22.50;45.60;;;;;;5031932;28;20057;-65
2021/05/20 05:22:04;;;;;;;0.50;0.50;;;22.50;45.80;;;;;;5046749;28;20132;-66
2021/05/20 05:24:32;;;;;;;0.55;0.55;;;22.50;46.00;;;;;;5037868;28;20414;-68
2021/05/20 05:27:00;;;;;;;0.68;0.40;;;22.50;46.00;;;;;;5031358;28;20076;-67
2021/05/20 05:29:28;;;;;;;0.60;0.60;;;22.50;46.10;;;;;;5038422;28;20061;-65
2021/05/20 05:31:55;;;;;;;0.75;0.63;;;22.50;46.10;;;;;;5034257;28;20115;-67
2021/05/20 05:34:22;;;;;;;0.47;0.47;;;22.60;46.10;;;;;;5030868;28;20078;-67
2021/05/20 05:36:50;;;;;;;1.27;0.52;;;22.60;46.20;;;;;;5039854;28;20096;-70
2021/05/20 05:39:17;;;;;;;0.55;0.55;;;22.60;46.30;;;;;;5031507;28;20175;-69
2021/05/20 05:41:45;;;;;;;1.70;0.75;;;22.60;46.30;;;;;;5031792;28;20049;-66
2021/05/20 05:44:13;;;;;;;0.95;0.90;;;22.60;46.40;;;;;;5029558;28;20087;-64
2021/05/20 05:46:42;;;;;;;1.63;1.50;;;22.60;46.40;;;;;;5034432;28;20045;-62
2021/05/20 05:49:19;;;;;;;1.25;1.00;;;22.60;46.60;;;;;;5031059;28;20077;-62
2021/05/20 05:51:54;;;;;;;0.82;0.75;;;22.70;47.00;;;;;;5032238;28;20573;-61
2021/05/20 05:54:23;;;;;;;1.55;0.98;;;22.70;47.10;;;;;;5031866;28;20450;-62
2021/05/20 05:56:51;;;;;;;1.23;1.13;;;22.80;47.40;;;;;;5032470;28;20053;-61
2021/05/20 05:59:18;;;;;;;1.15;1.15;;;22.80;47.40;;;;;;5028856;28;20088;-66
2021/05/20 06:01:46;;;;;;;1.98;1.10;;;22.80;47.40;;;;;;5029000;28;20132;-67
2021/05/20 06:04:15;;;;;;;2.92;1.40;;;22.90;47.50;;;;;;5035084;28;20459;-63
2021/05/20 06:06:44;;;;;;;4.32;1.10;;;22.90;47.60;;;;;;5019091;28;20053;-62
2021/05/20 06:09:12;;;;;;;3.42;1.05;;;22.90;47.50;;;;;;5021500;28;20049;-62
2021/05/20 06:11:39;;;;;;;2.03;1.13;;;23.00;47.60;;;;;;5027740;28;20069;-60
2021/05/20 06:14:07;;;;;;;2.80;1.58;;;23.00;47.60;;;;;;5025090;28;20511;-59
2021/05/20 06:16:35;;;;;;;2.47;1.85;;;23.00;47.40;;;;;;5023301;28;20053;-62
2021/05/20 06:19:03;;;;;;;1.25;1.13;;;23.10;47.30;;;;;;5029674;28;20041;-64
2021/05/20 06:21:30;;;;;;;2.80;1.55;;;23.10;47.30;;;;;;5029493;28;20054;-61
2021/05/20 06:23:58;;;;;;;3.80;1.92;;;23.10;47.30;;;;;;5024027;28;20052;-63
2021/05/20 06:26:27;;;;;;;4.53;1.48;;;23.10;47.20;;;;;;5027620;28;20049;-60
2021/05/20 06:28:54;;;;;;;3.28;1.23;;;23.10;47.20;;;;;;5023773;28;20076;-62
2021/05/20 06:31:21;;;;;;;4.47;1.33;;;23.20;47.20;;;;;;5027917;28;20048;-64
2021/05/20 06:33:49;;;;;;;2.42;1.70;;;23.20;47.00;;;;;;5030519;28;20298;-59
2021/05/20 06:36:17;;;;;;;6.13;1.70;;;23.20;46.90;;;;;;5034165;28;20041;-62
2021/05/20 06:38:44;;;;;;;2.80;2.03;;;23.20;46.70;;;;;;5031022;28;20441;-59
2021/05/20 06:41:11;;;;;;;4.25;2.20;;;23.20;46.60;;;;;;5033944;28;20119;-60
2021/05/20 06:43:39;;;;;;;7.20;2.00;;;23.20;46.70;;;;;;5034164;28;20045;-65
2021/05/20 06:46:07;;;;;;;6.20;2.50;;;23.30;46.50;;;;;;5033387;28;20507;-62
2021/05/20 06:48:35;;;;;;;6.68;2.42;;;23.40;46.50;;;;;;5030875;28;20561;-62
2021/05/20 06:51:03;;;;;;;3.53;1.95;;;23.30;46.20;;;;;;5030664;28;20057;-61
2021/05/20 06:53:32;;;;;;;4.00;2.38;;;23.30;45.90;;;;;;5026187;28;20054;-62
2021/05/20 06:56:01;;;;;;;2.90;1.85;;;23.40;45.60;;;;;;5034580;28;20140;-66
2021/05/20 07:01:16;;;;;;;3.42;2.15;;;23.50;45.20;;;;;;5033419;28;20053;-61
2021/05/20 07:03:44;;;;;;;2.47;1.90;;;23.50;45.10;;;;;;5032585;28;20139;-61
2021/05/20 07:06:12;;;;;;;2.15;1.73;;;23.50;45.10;;;;;;5039358;28;20086;-61
2021/05/20 07:08:40;;;;;;;3.55;1.85;;;23.50;45.10;;;;;;5034723;28;20136;-60
2021/05/20 07:11:07;;;;;;;3.35;1.92;;;23.40;44.90;;;;;;5030727;28;20076;-61
2021/05/20 07:13:35;;;;;;;3.30;2.28;;;23.40;44.90;;;;;;5031039;28;20466;-64
2021/05/20 07:16:03;;;;;;;2.85;1.98;;;23.40;44.90;;;;;;5031466;28;20124;-61
2021/05/20 07:18:30;;;;;;;2.42;1.65;;;23.40;44.80;;;;;;5037043;28;20057;-62
2021/05/20 07:20:57;;;;;;;8.52;2.38;;;23.40;44.80;;;;;;5034511;28;20179;-61
2021/05/20 07:23:25;;;;;;;2.33;1.52;;;23.40;44.80;;;;;;5033569;28;20061;-62
2021/05/20 07:25:53;;;;;;;3.38;1.85;;;23.40;44.90;;;;;;5030266;28;20061;-62
2021/05/20 07:28:22;;;;;;;2.60;1.67;;;23.40;44.80;;;;;;5020977;28;20069;-62
2021/05/20 07:30:49;;;;;;;1.92;1.50;;;23.30;44.80;;;;;;5027277;28;20045;-61
2021/05/20 07:33:16;;;;;;;2.95;1.80;;;23.40;44.90;;;;;;5032479;28;20085;-62
2021/05/20 07:35:43;;;;;;;3.35;2.13;;;23.40;44.90;;;;;;5033071;28;20038;-61
2021/05/20 07:38:11;;;;;;;4.03;1.92;;;23.40;45.00;;;;;;5032859;28;20076;-61
2021/05/20 07:40:38;;;;;;;2.72;2.17;;;23.30;45.00;;;;;;5044870;28;20049;-61
2021/05/20 07:43:05;;;;;;;2.80;1.48;;;23.40;45.00;;;;;;5032595;28;20052;-62
2021/05/20 07:45:32;;;;;;;6.13;2.10;;;23.40;45.10;;;;;;5028609;28;20146;-62
2021/05/20 07:48:00;;;;;;;3.45;1.80;;;23.40;45.00;;;;;;5032308;28;20091;-61
2021/05/20 07:50:27;;;;;;;4.72;1.77;;;23.40;45.00;;;;;;5037987;28;20077;-61
2021/05/20 07:52:54;;;;;;;2.08;1.60;;;23.40;44.90;;;;;;5029013;28;20115;-61
2021/05/20 07:55:21;;;;;;;3.80;1.65;;;23.40;44.90;;;;;;5033779;28;20274;-64
2021/05/20 07:57:50;;;;;;;1.50;1.20;;;23.50;44.90;;;;;;5031268;28;20120;-65
2021/05/20 08:00:18;;;;;;;2.28;1.25;;;23.50;45.00;;;;;;5031750;28;20490;-62
2021/05/20 08:02:51;;;;;;;1.63;1.33;;;23.50;45.00;;;;;;5031472;28;20053;-64
2021/05/20 08:05:29;;;;;;;1.20;1.10;;;23.50;45.00;;;;;;5031378;28;20549;-65
2021/05/20 08:10:56;;;;;;;2.35;1.67;;;23.50;45.00;;;;;;5031931;28;20132;-62
2021/05/20 08:13:23;;;;;;;1.63;1.20;;;23.50;45.00;;;;;;5032578;28;20083;-65
2021/05/20 08:15:50;;;;;;;1.42;1.20;;;23.50;45.10;;;;;;5034779;28;20493;-63
2021/05/20 08:18:17;;;;;;;2.03;1.25;;;23.50;45.10;;;;;;5030852;28;20049;-62
2021/05/20 08:20:45;;;;;;;2.08;1.35;;;23.40;45.00;;;;;;5038780;28;20449;-64
2021/05/20 08:23:12;;;;;;;4.32;1.30;;;23.40;45.00;;;;;;5049794;28;20761;-62
2021/05/20 08:25:39;;;;;;;2.17;1.55;;;23.50;45.10;;;;;;5029105;28;20045;-63
2021/05/20 08:28:06;;;;;;;4.32;1.33;;;23.50;45.10;;;;;;5032804;28;20084;-64
2021/05/20 08:30:34;;;;;;;2.10;1.35;;;23.40;45.20;;;;;;5038043;28;20073;-63
2021/05/20 08:33:01;;;;;;;2.10;1.27;;;23.50;45.20;;;;;;5029279;28;20537;-61
2021/05/20 08:35:29;;;;;;;3.90;1.42;;;23.50;45.20;;;;;;5027770;28;20049;-62
2021/05/20 08:37:56;;;;;;;1.63;1.50;;;23.50;45.20;;;;;;5034004;28;20136;-63
2021/05/20 08:40:24;;;;;;;3.00;1.40;;;23.50;45.20;;;;;;5027648;28;20131;-62
2021/05/20 08:42:51;;;;;;;8.50;1.65;;;23.50;45.10;;;;;;5029160;28;20049;-62
2021/05/20 08:45:25;;;;;;;2.67;1.73;;;23.60;45.10;;;;;;5031193;28;20076;-63
2021/05/20 08:47:54;;;;;;;3.45;1.90;;;23.50;45.00;;;;;;5042062;28;20114;-62
2021/05/20 08:50:25;;;;;;;4.53;1.50;;;23.60;45.00;;;;;;5028963;28;20140;-58
2021/05/20 08:52:53;;;;;;;1.80;1.70;;;23.50;45.00;;;;;;5032066;28;20520;-58
2021/05/20 08:55:23;;;;;;;3.85;1.50;;;23.50;44.90;;;;;;5032370;28;20202;-58
2021/05/20 08:57:50;;;;;;;3.90;1.70;;;23.60;44.90;;;;;;5027873;28;20140;-59
2021/05/20 09:00:20;;;;;;;1.98;1.25;;;23.50;44.80;;;;;;5031961;28;20057;-63
2021/05/20 09:02:49;;;;;;;6.10;1.70;;;23.60;44.80;;;;;;5034809;28;21466;-61
2021/05/20 09:05:18;;;;;;;5.05;2.45;;;23.60;44.90;;;;;;5028475;28;20057;-60
2021/05/20 09:07:56;;;;;;;2.63;1.83;;;23.50;45.00;;;;;;5028555;28;20582;-60
2021/05/20 09:10:29;;;;;;;3.70;1.98;;;23.60;45.00;;;;;;5035042;28;20080;-59
2021/05/20 09:13:06;;;;;;;3.78;1.67;;;23.60;45.00;;;;;;5029899;28;20128;-59
2021/05/20 09:15:36;;;;;;;3.08;2.20;;;23.60;45.00;;;;;;5027912;28;20132;-62
2021/05/20 09:18:11;;;;;;;;;;;23.60;44.90;;;;;;5028728;28;20139;-62
2021/05/20 09:20:45;;;;;;;4.05;1.85;;;23.60;44.80;;;;;;5025883;28;19983;-63
2021/05/20 09:23:18;;;;;;;1.60;1.50;;;23.60;44.80;;;;;;5027394;28;20132;-61
2021/05/20 09:25:48;;;;;;;4.13;1.70;;;23.70;45.00;;;;;;5027624;28;20232;-62
2021/05/20 09:28:16;;;;;;;1.65;1.48;;;23.60;44.90;;;;;;5027460;28;20057;-62
2021/05/20 09:30:45;;;;;;;2.00;1.70;;;23.70;45.00;;;;;;5026092;28;20418;-62
2021/05/20 09:33:15;;;;;;;3.85;1.88;;;23.70;44.90;;;;;;5028448;28;20070;-61
2021/05/20 09:35:45;;;;;;;2.65;2.45;;;23.80;44.70;;;;;;5029400;28;20456;-62
2021/05/20 09:38:16;;;;;;;;;;;23.80;43.80;;;;;;5030273;28;20695;-63
2021/05/20 09:40:56;;;;;;;2.92;1.83;;;23.80;44.00;;;;;;5031037;28;19960;-60
2021/05/20 09:43:33;;;;;;;3.15;1.60;;;23.90;44.20;;;;;;5031282;28;20107;-63
2021/05/20 09:46:04;;;;;;;2.50;1.88;;;23.90;44.20;;;;;;5033009;28;20063;-63
2021/05/20 09:48:37;;;;;;;4.68;2.17;;;24.00;44.30;;;;;;5030688;28;20561;-63
2021/05/20 09:51:06;;;;;;;2.50;1.40;;;24.10;44.10;;;;;;5038013;28;20048;-62
2021/05/20 09:53:45;;;;;;;3.40;1.40;;;24.20;43.80;;;;;;5032601;28;20521;-62
2021/05/20 09:56:12;;;;;;;2.30;1.20;;;24.30;43.60;;;;;;5030022;28;20079;-62
2021/05/20 09:58:53;;;;;;;2.13;1.45;;;24.30;43.30;;;;;;5029424;28;20045;-63
2021/05/20 10:01:20;;;;;;;1.98;1.35;;;24.30;43.20;;;;;;5029411;28;20140;-62
2021/05/20 10:03:52;;;;;;;2.25;1.60;;;24.40;43.20;;;;;;5032391;28;20156;-61
2021/05/20 10:06:42;;;;;;;1.83;1.60;;;24.40;43.10;;;;;;5027689;28;20507;-61
2021/05/20 10:09:12;;;;;;;2.00;1.73;;;24.50;43.00;;;;;;5031143;28;20091;-61
2021/05/20 10:11:40;;;;;;;;;;;24.50;42.90;;;;;;5033535;28;20076;-61
2021/05/20 10:14:08;;;;;;;3.97;1.90;;;24.50;42.60;;;;;;5036240;28;20352;-61
2021/05/20 10:16:40;;;;;;;2.08;1.80;;;24.60;42.70;;;;;;5033289;28;20486;-61
2021/05/20 10:19:07;;;;;;;2.33;1.40;;;24.70;42.60;;;;;;5030991;28;20556;-61
2021/05/20 10:21:35;;;;;;;2.13;1.30;;;24.70;42.40;;;;;;5031770;28;20049;-61
2021/05/20 10:24:05;;;;;;;2.15;1.65;;;24.80;42.80;;;;;;5037546;28;20072;-61
2021/05/20 10:26:40;;;;;;;3.38;1.77;;;24.80;42.80;;;;;;5035725;28;20052;-60
2021/05/20 10:29:09;;;;;;;3.03;2.08;;;24.80;42.60;;;;;;5037258;28;20056;-64
2021/05/20 10:31:40;;;;;;;6.35;1.95;;;24.90;42.50;;;;;;5035671;28;20146;-61
2021/05/20 10:34:07;;;;;;;3.70;1.60;;;24.90;42.30;;;;;;5035906;28;20053;-61
2021/05/20 10:36:35;;;;;;;3.75;2.55;;;25.00;42.10;;;;;;5028548;28;20802;-60
2021/05/20 10:39:22;;;;;;;1.90;1.52;;;25.10;42.10;;;;;;5035304;28;20053;-59
2021/05/20 10:41:50;;;;;;;2.80;2.20;;;25.10;41.80;;;;;;5030844;28;20450;-60
2021/05/20 10:44:17;;;;;;;3.55;2.28;;;25.10;41.70;;;;;;5028065;28;20042;-62
2021/05/20 10:47:03;;;;;;;4.88;2.63;;;25.20;41.70;;;;;;5034574;28;20048;-61
2021/05/20 10:50:00;;;;;;;2.60;2.40;;;25.20;41.60;;;;;;5031733;28;20037;-59
2021/05/20 10:52:42;;;;;;;5.15;2.05;;;25.20;41.60;;;;;;5030825;28;20106;-60
2021/05/20 10:55:14;;;;;;;1.70;1.60;;;25.30;41.50;;;;;;5032169;28;20050;-62
2021/05/20 10:58:00;;;;;;;3.75;1.92;;;25.30;41.50;;;;;;5029732;28;20459;-61
2021/05/20 11:00:41;;;;;;;3.60;2.15;;;25.30;41.30;;;;;;5029980;28;20406;-62
2021/05/20 11:03:09;;;;;;;2.50;1.65;;;25.30;41.30;;;;;;5026258;28;20053;-61
2021/05/20 11:05:55;;;;;;;7.13;1.33;;;25.30;41.20;;;;;;5029118;28;20551;-62
2021/05/20 11:08:53;;;;;;;2.08;1.70;;;25.40;41.20;;;;;;5031590;28;20080;-61
2021/05/20 11:11:46;;;;;;;1.98;1.50;;;25.40;41.20;;;;;;5015291;28;20091;-61
2021/05/20 11:14:33;;;;;;;2.00;1.52;;;25.40;41.30;;;;;;5034539;28;20083;-62
2021/05/20 11:17:00;;;;;;;1.73;1.58;;;25.30;41.30;;;;;;5032369;28;20049;-61
2021/05/20 11:19:29;;;;;;;3.05;1.73;;;25.30;41.30;;;;;;5027601;28;20494;-61
2021/05/20 11:22:15;;;;;;;1.98;1.58;;;25.30;41.20;;;;;;5029529;28;20053;-62
2021/05/20 11:25:03;;;;;;;4.22;1.52;;;25.40;41.30;;;;;;5030429;28;20059;-60
2021/05/20 11:27:30;;;;;;;1.60;1.48;;;25.40;41.30;;;;;;5026614;28;20128;-61
2021/05/20 11:29:57;;;;;;;2.45;1.50;;;25.40;41.30;;;;;;5029802;28;20046;-62
2021/05/20 11:32:29;;;;;;;4.90;1.40;;;25.50;41.40;;;;;;5028619;28;20050;-62
2021/05/20 11:37:59;;;;;;;4.15;1.63;;;25.60;41.30;;;;;;5029391;28;20045;-60
2021/05/20 11:40:34;;;;;;;6.53;1.55;;;25.60;41.20;;;;;;5031862;28;20523;-60
2021/05/20 11:43:02;;;;;;;1.83;1.50;;;25.60;41.20;;;;;;5023186;28;20053;-61
2021/05/20 11:45:31;;;;;;;3.15;1.58;;;25.70;40.70;;;;;;5032841;28;20131;-59
2021/05/20 11:48:01;;;;;;;2.92;1.45;;;25.70;40.00;;;;;;5032985;28;20175;-60
2021/05/20 11:50:29;;;;;;;1.97;1.70;;;25.70;40.00;;;;;;5036226;28;20049;-62
2021/05/20 11:52:57;;;;;;;3.67;1.73;;;25.70;40.10;;;;;;5029268;28;20056;-59
2021/05/20 11:55:24;;;;;;;4.68;1.60;;;25.70;40.40;;;;;;5030208;28;20502;-60
2021/05/20 11:58:02;;;;;;;1.20;1.10;;;25.70;40.50;;;;;;5036400;28;20049;-58
2021/05/20 12:00:30;;;;;;;1.60;1.25;;;25.70;40.60;;;;;;5036305;28;20222;-60
2021/05/20 12:02:58;;;;;;;2.45;1.45;;;25.70;40.70;;;;;;5027862;28;20049;-60
2021/05/20 12:05:26;;;;;;;2.03;1.65;;;25.70;40.50;;;;;;5027447;28;20056;-60
2021/05/20 12:08:19;;;;;;;4.88;2.40;;;25.80;40.40;;;;;;5030585;28;20045;-60
2021/05/20 12:10:51;;;;;;;3.97;1.42;;;25.80;40.30;;;;;;5028641;28;20064;-58
2021/05/20 12:13:19;;;;;;;1.65;1.35;;;25.80;40.30;;;;;;5031607;28;20558;-58
2021/05/20 12:15:48;;;;;;;2.05;1.80;;;25.90;40.30;;;;;;5034676;28;20106;-58
2021/05/20 12:18:15;;;;;;;1.42;1.17;;;25.90;40.40;;;;;;5030053;28;20060;-59
2021/05/20 12:20:45;;;;;;;8.73;1.88;;;25.90;40.30;;;;;;5030091;28;20052;-61
2021/05/20 12:23:13;;;;;;;2.90;1.50;;;26.00;40.60;;;;;;5030998;28;20060;-59
2021/05/20 12:25:40;;;;;;;2.63;2.22;;;26.00;40.20;;;;;;5031569;28;20139;-61
2021/05/20 12:28:10;;;;;;;1.48;1.38;;;26.00;40.10;;;;;;5028414;28;20080;-58
2021/05/20 12:30:40;;;;;;;2.83;1.40;;;26.00;40.00;;;;;;5028959;28;20057;-59
2021/05/20 12:33:09;;;;;;;1.55;1.45;;;26.10;40.00;;;;;;5031875;28;20056;-60
2021/05/20 12:35:41;;;;;;;1.25;1.15;;;26.10;40.00;;;;;;5029860;28;20076;-59
2021/05/20 12:38:20;;;;;;;6.60;1.33;;;26.10;40.00;;;;;;5031731;28;20518;-61
2021/05/20 12:40:58;;;;;;;2.28;1.00;;;26.20;40.10;;;;;;5030771;28;20046;-62
2021/05/20 12:43:38;;;;;;;3.38;1.10;;;26.20;40.10;;;;;;5029632;28;20136;-61
2021/05/20 12:46:13;;;;;;;1.40;1.30;;;26.30;36.90;;;;;;5031928;28;20076;-62
2021/05/20 12:48:46;;;;;;;2.35;1.25;;;26.20;37.80;;;;;;5027903;28;20096;-60
2021/05/20 12:51:24;;;;;;;1.65;1.25;;;26.20;38.60;;;;;;5028663;28;20494;-61
2021/05/20 12:54:06;;;;;;;2.95;1.13;;;26.20;38.90;;;;;;5031206;28;20090;-61
2021/05/20 12:56:36;;;;;;;6.72;1.67;;;26.30;39.20;;;;;;5027126;28;20136;-61
2021/05/20 12:59:11;;;;;;;3.08;1.20;;;26.30;39.20;;;;;;5032530;28;20155;-63
2021/05/20 13:01:50;;;;;;;4.15;1.45;;;26.30;39.20;;;;;;5029897;28;20569;-61
2021/05/20 13:04:31;;;;;;;5.78;1.50;;;26.30;39.20;;;;;;5029963;28;20406;-60
2021/05/20 13:07:07;;;;;;;1.40;1.30;;;26.40;39.10;;;;;;5027070;28;20122;-59
2021/05/20 13:09:36;;;;;;;1.27;1.10;;;26.40;39.70;;;;;;5025478;28;20503;-60
2021/05/20 13:12:13;;;;;;;1.08;1.08;;;26.30;39.20;;;;;;5032308;28;20136;-60
2021/05/20 13:14:59;;;;;;;2.13;1.50;;;26.30;39.10;;;;;;5042963;28;20084;-59
2021/05/20 13:17:35;;;;;;;3.20;1.55;;;26.20;39.10;;;;;;5033746;28;20490;-60
2021/05/20 13:23:28;;;;;;;3.00;1.10;;;26.20;39.30;;;;;;5032036;28;20099;-60
2021/05/20 13:26:01;;;;;;;1.45;1.15;;;26.20;39.10;;;;;;5026315;28;20092;-60
2021/05/20 13:28:28;;;;;;;6.63;1.20;;;26.30;39.20;;;;;;5027849;28;20132;-62
2021/05/20 13:30:58;;;;;;;1.92;1.10;;;26.30;39.10;;;;;;5032185;28;20138;-59
2021/05/20 13:33:29;;;;;;;1.63;0.90;;;26.30;39.10;;;;;;5030648;28;20053;-60
2021/05/20 13:36:03;;;;;;;1.10;1.00;;;26.40;39.20;;;;;;5026866;28;20594;-61
2021/05/20 13:38:30;;;;;;;2.00;1.27;;;26.40;38.80;;;;;;5036748;28;20057;-60